Time;durP1;ratioP1;P1;durP2;ratioP2;P2;SDS_P1;SDS_P2;PMS_P1;PMS_P2;Temp;Humidity;BMP_temperature;BMP_pressure;BME280_temperature;BME280_humidity;BME280_pressure;Samples;Min_cycle;Max_cycle;Signal;HPM_P1;HPM_P2
2023/08/04 00:01:56;;;;;;;2.40;1.92;;;16.40;99.90;;;;;;5071764;28;20478;-42
2023/08/04 00:04:22;;;;;;;3.33;2.03;;;16.30;99.90;;;;;;5070105;28;20085;-42
2023/08/04 00:06:47;;;;;;;5.82;1.98;;;16.30;99.90;;;;;;5070021;28;20055;-42
2023/08/04 00:09:16;;;;;;;2.28;1.60;;;16.30;99.90;;;;;;5072852;28;20043;-42
2023/08/04 00:11:42;;;;;;;2.53;1.80;;;16.30;99.90;;;;;;5067231;28;20029;-42
2023/08/04 00:14:07;;;;;;;3.65;1.90;;;16.30;99.90;;;;;;5076088;28;21497;-42
2023/08/04 00:16:33;;;;;;;2.50;1.70;;;16.30;99.90;;;;;;5066562;28;20056;-42
2023/08/04 00:19:19;;;;;;;5.45;2.15;;;16.20;99.90;;;;;;5082778;28;20081;-42
2023/08/04 00:21:45;;;;;;;6.25;1.88;;;16.20;99.90;;;;;;5083860;28;20032;-42
2023/08/04 00:24:11;;;;;;;3.60;1.83;;;16.20;99.90;;;;;;5072953;28;20491;-42
2023/08/04 00:26:36;;;;;;;2.53;1.58;;;16.20;99.90;;;;;;5084348;28;20387;-42
2023/08/04 00:29:02;;;;;;;3.17;1.58;;;16.20;99.90;;;;;;5073147;28;20086;-42
2023/08/04 00:31:27;;;;;;;2.60;1.60;;;16.20;99.90;;;;;;5085386;28;20035;-42
2023/08/04 00:33:55;;;;;;;2.97;1.70;;;16.20;99.90;;;;;;5072509;28;20117;-42
2023/08/04 00:36:20;;;;;;;5.03;2.08;;;16.20;99.90;;;;;;5084697;28;20032;-42
2023/08/04 00:38:49;;;;;;;4.53;1.65;;;16.20;99.90;;;;;;5075127;28;20490;-43
2023/08/04 00:41:14;;;;;;;4.68;1.90;;;16.20;99.90;;;;;;5084467;28;20031;-42
2023/08/04 00:43:40;;;;;;;6.20;2.20;;;16.10;99.90;;;;;;5075334;28;20387;-43
2023/08/04 00:46:05;;;;;;;5.22;1.90;;;16.10;99.90;;;;;;5082056;28;20046;-42
2023/08/04 00:48:31;;;;;;;3.75;1.83;;;16.00;99.90;;;;;;5078680;28;20083;-42
2023/08/04 00:51:00;;;;;;;3.65;1.90;;;16.00;99.90;;;;;;5070149;28;20081;-42
2023/08/04 00:53:26;;;;;;;4.60;1.80;;;16.10;99.90;;;;;;5069424;28;20478;-42
2023/08/04 00:55:52;;;;;;;3.58;1.70;;;16.00;99.90;;;;;;5072468;28;20027;-42
2023/08/04 00:58:18;;;;;;;3.80;2.00;;;16.00;99.90;;;;;;5076283;28;20024;-42
2023/08/04 01:00:43;;;;;;;4.05;1.67;;;16.00;99.90;;;;;;5074189;28;20031;-42
2023/08/04 01:03:09;;;;;;;4.43;1.85;;;16.00;99.90;;;;;;5065840;28;20020;-42
2023/08/04 01:05:49;;;;;;;4.20;1.77;;;16.00;99.90;;;;;;5075400;28;20401;-42
2023/08/04 01:08:23;;;;;;;2.70;1.65;;;16.00;99.90;;;;;;5065006;28;20040;-42
2023/08/04 01:10:59;;;;;;;3.38;1.80;;;15.90;99.90;;;;;;5076205;28;20115;-43
2023/08/04 01:13:26;;;;;;;2.85;1.67;;;15.90;99.90;;;;;;5065661;28;20055;-43
2023/08/04 01:15:53;;;;;;;4.88;2.35;;;15.90;99.90;;;;;;5075766;28;20028;-42
2023/08/04 01:18:20;;;;;;;3.47;1.70;;;15.90;99.90;;;;;;5065070;28;20042;-42
2023/08/04 01:20:46;;;;;;;3.33;1.70;;;15.90;99.90;;;;;;5076126;28;20017;-41
2023/08/04 01:23:11;;;;;;;4.30;1.67;;;15.90;99.90;;;;;;5063899;28;20029;-42
2023/08/04 01:25:37;;;;;;;3.80;1.92;;;15.90;99.90;;;;;;5076653;28;20070;-42
2023/08/04 01:28:11;;;;;;;4.15;1.90;;;15.90;99.90;;;;;;5063959;28;20098;-42
2023/08/04 01:30:38;;;;;;;5.57;1.77;;;16.00;99.90;;;;;;5075953;28;20016;-42
2023/08/04 01:33:06;;;;;;;4.57;1.80;;;16.00;99.90;;;;;;5064036;28;20040;-42
2023/08/04 01:35:32;;;;;;;4.32;1.60;;;16.00;99.90;;;;;;5074748;28;20024;-42
2023/08/04 01:37:58;;;;;;;5.03;1.67;;;16.00;99.90;;;;;;5065788;28;20028;-42
2023/08/04 01:40:23;;;;;;;2.95;1.92;;;16.00;99.90;;;;;;5070762;28;20684;-42
2023/08/04 01:42:49;;;;;;;3.70;1.73;;;16.10;99.90;;;;;;5080399;28;20028;-43
2023/08/04 01:45:14;;;;;;;3.35;1.67;;;16.10;99.90;;;;;;5077097;28;20380;-42
2023/08/04 01:47:45;;;;;;;3.05;1.85;;;16.10;99.90;;;;;;5076990;28;20051;-42
2023/08/04 01:50:10;;;;;;;2.75;1.83;;;16.10;99.90;;;;;;5079688;28;20096;-42
2023/08/04 01:52:36;;;;;;;4.10;1.90;;;16.20;99.90;;;;;;5075403;28;20445;-42
2023/08/04 01:55:05;;;;;;;5.65;2.10;;;16.20;99.90;;;;;;5082011;28;20024;-42
2023/08/04 01:57:30;;;;;;;4.18;2.00;;;16.30;99.90;;;;;;5072988;28;20367;-42
2023/08/04 01:59:56;;;;;;;2.67;1.73;;;16.30;99.90;;;;;;5080928;28;20749;-42
2023/08/04 02:02:22;;;;;;;3.25;2.10;;;16.30;99.90;;;;;;5073916;28;20025;-42
2023/08/04 02:04:47;;;;;;;4.35;2.10;;;16.30;99.90;;;;;;5063890;28;20539;-42
2023/08/04 02:07:13;;;;;;;4.32;2.38;;;16.30;99.90;;;;;;5071074;28;20013;-43
2023/08/04 02:09:38;;;;;;;3.17;2.17;;;16.30;99.90;;;;;;5083550;28;20028;-42
2023/08/04 02:12:10;;;;;;;2.88;1.90;;;16.30;99.90;;;;;;5070305;28;20032;-42
2023/08/04 02:14:36;;;;;;;3.38;2.00;;;16.30;99.90;;;;;;5064726;28;20072;-42
2023/08/04 02:17:01;;;;;;;5.30;2.00;;;16.30;99.90;;;;;;5067181;28;20059;-42
2023/08/04 02:19:27;;;;;;;6.38;2.35;;;16.30;99.90;;;;;;5083752;28;20036;-42
2023/08/04 02:21:52;;;;;;;6.57;2.47;;;16.20;99.90;;;;;;5078554;28;20531;-42
2023/08/04 02:24:18;;;;;;;4.97;2.45;;;16.30;99.90;;;;;;5083973;28;20573;-42
2023/08/04 02:26:46;;;;;;;4.35;2.15;;;16.30;99.90;;;;;;5080578;28;20030;-42
2023/08/04 02:29:13;;;;;;;3.72;2.30;;;16.30;99.90;;;;;;5081796;28;20040;-42
2023/08/04 02:31:39;;;;;;;4.80;2.25;;;16.30;99.90;;;;;;5082471;28;20027;-42
2023/08/04 02:34:06;;;;;;;4.47;2.45;;;16.30;99.90;;;;;;5080117;28;20115;-42
2023/08/04 02:36:31;;;;;;;4.20;2.50;;;16.30;99.90;;;;;;5085054;28;20029;-42
2023/08/04 02:38:57;;;;;;;5.38;2.45;;;16.20;99.90;;;;;;5077159;28;20862;-42
2023/08/04 02:41:23;;;;;;;2.95;1.90;;;16.20;99.90;;;;;;5086122;28;20027;-42
2023/08/04 02:43:48;;;;;;;3.88;2.13;;;16.20;99.90;;;;;;5080662;28;20039;-42
2023/08/04 02:46:14;;;;;;;5.45;2.50;;;16.20;99.90;;;;;;5086005;28;20020;-42
2023/08/04 02:48:40;;;;;;;6.38;2.53;;;16.20;99.90;;;;;;5075497;28;20122;-42
2023/08/04 02:51:08;;;;;;;4.47;2.40;;;16.20;99.90;;;;;;5086417;28;20032;-42
2023/08/04 02:53:43;;;;;;;4.05;2.13;;;16.20;99.90;;;;;;5074134;28;20044;-42
2023/08/04 02:56:11;;;;;;;4.38;2.55;;;16.20;99.90;;;;;;5087528;28;20032;-42
2023/08/04 02:58:49;;;;;;;6.28;2.72;;;16.10;99.90;;;;;;5073691;28;20097;-42
2023/08/04 03:01:14;;;;;;;6.07;2.72;;;16.10;99.90;;;;;;5086055;28;20020;-41
2023/08/04 03:03:40;;;;;;;6.07;2.75;;;16.10;99.90;;;;;;5074207;28;20043;-41
2023/08/04 03:06:06;;;;;;;5.35;2.75;;;16.10;99.90;;;;;;5086633;28;20017;-41
2023/08/04 03:08:32;;;;;;;6.55;2.65;;;16.20;99.90;;;;;;5075789;28;20037;-41
2023/08/04 03:10:58;;;;;;;4.65;2.63;;;16.10;99.90;;;;;;5083244;28;20028;-42
2023/08/04 03:13:24;;;;;;;3.25;2.30;;;16.10;99.90;;;;;;5078365;28;20051;-42
2023/08/04 03:16:00;;;;;;;4.38;2.97;;;16.10;99.90;;;;;;5081700;28;20798;-42
2023/08/04 03:18:26;;;;;;;7.85;2.83;;;16.20;99.90;;;;;;5080010;28;20029;-43
2023/08/04 03:20:52;;;;;;;5.50;2.83;;;16.20;99.90;;;;;;5080793;28;20031;-42
2023/08/04 03:23:21;;;;;;;5.15;2.60;;;16.20;99.90;;;;;;5082032;28;20020;-42
2023/08/04 03:25:48;;;;;;;5.70;3.10;;;16.10;99.90;;;;;;5078798;28;20495;-41
2023/08/04 03:28:14;;;;;;;3.42;2.83;;;16.20;99.90;;;;;;5083493;28;20039;-42
2023/08/04 03:30:40;;;;;;;4.90;2.60;;;16.20;99.90;;;;;;5075871;28;20024;-41
2023/08/04 03:33:05;;;;;;;5.55;3.05;;;16.20;99.90;;;;;;5084886;28;20461;-42
2023/08/04 03:35:31;;;;;;;3.85;2.83;;;16.20;99.90;;;;;;5094058;28;20042;-42
2023/08/04 03:37:57;;;;;;;5.00;2.88;;;16.20;99.90;;;;;;5086000;28;20024;-42
2023/08/04 03:40:22;;;;;;;4.45;2.90;;;16.20;99.90;;;;;;5083424;28;20471;-43
2023/08/04 03:42:48;;;;;;;5.50;2.60;;;16.20;99.90;;;;;;5084972;28;20123;-42
2023/08/04 03:45:13;;;;;;;5.40;3.08;;;16.20;99.90;;;;;;5078805;28;20023;-42
2023/08/04 03:47:39;;;;;;;4.85;2.80;;;16.20;99.90;;;;;;5065997;28;20059;-42
2023/08/04 03:50:06;;;;;;;6.53;3.40;;;16.20;99.90;;;;;;5069748;28;20480;-42
2023/08/04 03:52:34;;;;;;;6.55;3.30;;;16.10;99.90;;;;;;5085530;28;20036;-42
2023/08/04 03:55:03;;;;;;;5.07;3.47;;;16.20;99.90;;;;;;5076346;28;20056;-42
2023/08/04 03:57:31;;;;;;;5.35;3.15;;;16.20;99.90;;;;;;5083174;28;20020;-42
2023/08/04 03:59:57;;;;;;;8.65;3.63;;;16.20;99.90;;;;;;5078261;28;20024;-41
2023/08/04 04:02:22;;;;;;;5.93;3.15;;;16.20;99.90;;;;;;5080857;28;20051;-42
2023/08/04 04:04:48;;;;;;;7.15;3.17;;;16.30;99.90;;;;;;5080071;28;20757;-42
2023/08/04 04:07:14;;;;;;;4.25;3.10;;;16.30;99.90;;;;;;5077787;28;20028;-41
2023/08/04 04:09:39;;;;;;;4.90;3.10;;;16.30;99.90;;;;;;5078765;28;20045;-41
2023/08/04 04:12:05;;;;;;;6.18;3.15;;;16.20;99.90;;;;;;5074861;28;20025;-42
2023/08/04 04:14:31;;;;;;;6.78;3.53;;;16.30;99.90;;;;;;5066110;28;20048;-43
2023/08/04 04:17:02;;;;;;;5.47;3.15;;;16.20;99.90;;;;;;5077209;28;20050;-42
2023/08/04 04:19:30;;;;;;;8.02;3.45;;;16.30;99.90;;;;;;5066174;28;20032;-41
2023/08/04 04:21:56;;;;;;;6.07;3.13;;;16.30;99.90;;;;;;5076616;28;20017;-42
2023/08/04 04:24:24;;;;;;;6.85;3.15;;;16.30;99.90;;;;;;5064902;28;20032;-42
2023/08/04 04:26:50;;;;;;;6.55;3.42;;;16.30;99.90;;;;;;5072460;28;20020;-42
2023/08/04 04:29:15;;;;;;;4.55;3.10;;;16.30;99.90;;;;;;5084845;28;20394;-42
2023/08/04 04:31:41;;;;;;;4.68;2.83;;;16.30;99.90;;;;;;5071771;28;20107;-42
2023/08/04 04:34:06;;;;;;;6.07;3.63;;;16.30;99.90;;;;;;5085369;28;20028;-42
2023/08/04 04:36:32;;;;;;;3.55;3.15;;;16.30;99.90;;;;;;5073931;28;20016;-42
2023/08/04 04:38:57;;;;;;;4.68;3.10;;;16.30;99.90;;;;;;5081849;28;20023;-42
2023/08/04 04:41:23;;;;;;;6.45;3.38;;;16.40;99.90;;;;;;5076649;28;20017;-43
2023/08/04 04:43:48;;;;;;;5.90;3.70;;;16.40;99.90;;;;;;5080367;28;20039;-41
2023/08/04 04:46:14;;;;;;;5.40;2.85;;;16.40;99.90;;;;;;5078624;28;20016;-41
2023/08/04 04:48:41;;;;;;;9.77;4.00;;;16.40;99.90;;;;;;5078159;28;20055;-42
2023/08/04 04:51:07;;;;;;;4.18;3.28;;;16.30;99.90;;;;;;5081007;28;20024;-42
2023/08/04 04:53:35;;;;;;;5.13;2.92;;;16.30;99.90;;;;;;5075041;28;20028;-42
2023/08/04 04:56:01;;;;;;;3.88;2.88;;;16.30;99.90;;;;;;5083734;28;20020;-42
2023/08/04 04:58:26;;;;;;;3.30;2.60;;;16.30;99.90;;;;;;5073678;28;20036;-42
2023/08/04 05:00:53;;;;;;;3.35;2.83;;;16.30;99.90;;;;;;5082818;28;20028;-41
2023/08/04 05:03:18;;;;;;;4.13;2.78;;;16.30;99.90;;;;;;5075669;28;20031;-41
2023/08/04 05:05:45;;;;;;;5.88;2.95;;;16.30;99.90;;;;;;5064970;28;20020;-42
2023/08/04 05:08:10;;;;;;;3.42;2.35;;;16.30;99.90;;;;;;5075154;28;20077;-42
2023/08/04 05:10:36;;;;;;;6.22;2.90;;;16.30;99.90;;;;;;5064330;28;20024;-42
2023/08/04 05:13:04;;;;;;;5.75;2.88;;;16.40;99.90;;;;;;5076322;28;20043;-42
2023/08/04 05:15:32;;;;;;;4.32;3.03;;;16.30;99.90;;;;;;5063803;28;20692;-42
2023/08/04 05:17:58;;;;;;;4.28;2.50;;;16.40;99.90;;;;;;5075209;28;20020;-43
2023/08/04 05:20:23;;;;;;;4.15;2.17;;;16.40;99.90;;;;;;5065195;28;20527;-45
2023/08/04 05:22:49;;;;;;;2.95;2.00;;;16.40;99.90;;;;;;5072367;28;20028;-43
2023/08/04 05:25:15;;;;;;;4.25;2.40;;;16.40;99.90;;;;;;5067911;28;20028;-43
2023/08/04 05:27:40;;;;;;;4.72;2.53;;;16.40;99.90;;;;;;5068944;28;20391;-43
2023/08/04 05:30:07;;;;;;;4.07;2.17;;;16.50;99.90;;;;;;5070217;28;20032;-43
2023/08/04 05:32:32;;;;;;;3.75;2.15;;;16.50;99.90;;;;;;5067142;28;20029;-44
2023/08/04 05:34:58;;;;;;;3.45;2.20;;;16.50;99.90;;;;;;5072508;28;20086;-43
2023/08/04 05:37:23;;;;;;;3.72;2.08;;;16.60;99.90;;;;;;5067467;28;20027;-43
2023/08/04 05:39:50;;;;;;;2.85;1.98;;;16.60;99.90;;;;;;5064322;28;20033;-43
2023/08/04 05:42:18;;;;;;;3.28;2.00;;;16.70;99.90;;;;;;5064693;28;20033;-43
2023/08/04 05:44:44;;;;;;;2.28;1.67;;;16.70;99.90;;;;;;5075101;28;20025;-43
2023/08/04 05:47:10;;;;;;;3.03;1.80;;;16.80;99.90;;;;;;5063479;28;20113;-42
2023/08/04 05:49:35;;;;;;;2.38;1.63;;;16.80;99.90;;;;;;5076222;28;20112;-42
2023/08/04 05:52:01;;;;;;;3.05;1.80;;;16.90;99.90;;;;;;5063434;28;20430;-45
2023/08/04 05:54:27;;;;;;;3.53;1.70;;;16.90;99.90;;;;;;5078622;28;20066;-43
2023/08/04 05:56:52;;;;;;;2.55;1.67;;;16.90;99.90;;;;;;5073249;28;20242;-44
2023/08/04 05:59:18;;;;;;;1.95;1.70;;;16.90;99.90;;;;;;5076799;28;20131;-42
2023/08/04 06:01:46;;;;;;;2.03;1.50;;;17.00;99.90;;;;;;5079601;28;20086;-42
2023/08/04 06:04:12;;;;;;;4.10;2.00;;;17.00;99.90;;;;;;5075694;28;20027;-41
2023/08/04 06:06:37;;;;;;;3.50;2.10;;;17.00;99.90;;;;;;5075146;28;20036;-42
2023/08/04 06:09:03;;;;;;;2.70;1.90;;;17.10;99.90;;;;;;5077080;28;20063;-42
2023/08/04 06:11:29;;;;;;;4.30;1.95;;;17.10;99.90;;;;;;5076767;28;20169;-42
2023/08/04 06:13:55;;;;;;;3.00;2.70;;;17.10;99.90;;;;;;5081677;28;20761;-42
2023/08/04 06:16:20;;;;;;;5.10;2.28;;;17.10;99.90;;;;;;5076368;28;20024;-41
2023/08/04 06:18:46;;;;;;;3.30;2.20;;;17.10;99.90;;;;;;5079363;28;20031;-41
2023/08/04 06:21:11;;;;;;;4.97;2.30;;;17.10;99.90;;;;;;5082679;28;20028;-42
2023/08/04 06:23:45;;;;;;;2.97;2.00;;;17.20;99.90;;;;;;5078550;28;20707;-42
2023/08/04 06:26:12;;;;;;;2.25;2.05;;;17.20;99.90;;;;;;5076295;28;20047;-42
2023/08/04 06:28:38;;;;;;;4.28;2.63;;;17.30;99.90;;;;;;5077849;28;20079;-42
2023/08/04 06:31:04;;;;;;;4.70;2.08;;;17.30;99.90;;;;;;5074372;28;20671;-41
2023/08/04 06:33:30;;;;;;;3.15;1.98;;;17.40;99.90;;;;;;5081833;28;20036;-42
2023/08/04 06:35:56;;;;;;;3.03;2.10;;;17.40;99.90;;;;;;5078429;28;20040;-41
2023/08/04 06:38:24;;;;;;;3.70;2.42;;;17.50;99.90;;;;;;5079051;28;20036;-42
2023/08/04 06:40:50;;;;;;;3.88;2.35;;;17.60;99.90;;;;;;5077571;28;20292;-42
2023/08/04 06:43:16;;;;;;;3.78;2.25;;;17.60;99.90;;;;;;5076650;28;20611;-43
2023/08/04 06:45:44;;;;;;;3.10;1.80;;;17.60;99.90;;;;;;5078391;28;20028;-43
2023/08/04 06:48:09;;;;;;;3.20;1.90;;;17.60;99.90;;;;;;5077107;28;20055;-43
2023/08/04 06:50:35;;;;;;;3.28;2.10;;;17.60;99.90;;;;;;5076907;28;20028;-44
2023/08/04 06:53:01;;;;;;;3.95;2.05;;;17.70;99.90;;;;;;5073332;28;20659;-43
2023/08/04 06:55:26;;;;;;;2.20;1.85;;;17.80;99.90;;;;;;5072155;28;20024;-42
2023/08/04 06:57:52;;;;;;;3.95;2.40;;;17.80;99.90;;;;;;5082450;28;20471;-42
2023/08/04 07:00:17;;;;;;;3.05;2.30;;;17.80;99.90;;;;;;5078370;28;20483;-43
2023/08/04 07:02:49;;;;;;;2.58;2.38;;;17.80;99.90;;;;;;5078299;28;20055;-42
2023/08/04 07:05:15;;;;;;;3.40;2.00;;;17.80;99.90;;;;;;5077100;28;20040;-42
2023/08/04 07:07:41;;;;;;;4.68;2.25;;;17.80;99.90;;;;;;5078490;28;20032;-42
2023/08/04 07:10:08;;;;;;;3.75;2.38;;;17.90;99.90;;;;;;5075014;28;20024;-43
2023/08/04 07:12:33;;;;;;;3.22;2.75;;;18.00;99.90;;;;;;5073493;28;20034;-43
2023/08/04 07:14:59;;;;;;;3.22;1.88;;;18.10;99.90;;;;;;5074324;28;20032;-42
2023/08/04 07:17:24;;;;;;;2.80;1.88;;;18.20;99.90;;;;;;5075796;28;20031;-42
2023/08/04 07:19:50;;;;;;;3.78;1.90;;;18.30;99.90;;;;;;5072152;28;20028;-44
2023/08/04 07:22:16;;;;;;;2.63;2.00;;;18.40;99.90;;;;;;5079153;28;20132;-43
2023/08/04 07:24:42;;;;;;;2.75;2.00;;;18.60;99.90;;;;;;5076689;28;20111;-42
2023/08/04 07:27:08;;;;;;;3.65;2.08;;;18.60;99.90;;;;;;5071414;28;20431;-41
2023/08/04 07:29:34;;;;;;;4.93;2.30;;;18.60;99.90;;;;;;5076068;28;20036;-43
2023/08/04 07:32:00;;;;;;;4.93;2.50;;;18.60;99.90;;;;;;5075274;28;20023;-42
2023/08/04 07:34:26;;;;;;;3.92;2.30;;;18.60;99.90;;;;;;5078201;28;20051;-42
2023/08/04 07:36:51;;;;;;;3.05;2.13;;;18.50;99.90;;;;;;5070366;28;20126;-42
2023/08/04 07:39:17;;;;;;;3.78;2.00;;;18.50;99.90;;;;;;5079357;28;20216;-41
2023/08/04 07:41:42;;;;;;;3.05;2.50;;;18.50;99.90;;;;;;5077607;28;20391;-42
2023/08/04 07:44:08;;;;;;;4.32;2.25;;;18.50;99.90;;;;;;5080107;28;20028;-41
2023/08/04 07:46:34;;;;;;;2.97;1.92;;;18.50;99.90;;;;;;5081752;28;20090;-42
2023/08/04 07:48:59;;;;;;;2.40;1.80;;;18.60;99.90;;;;;;5070731;28;20210;-42
2023/08/04 07:51:25;;;;;;;3.17;1.92;;;18.60;99.90;;;;;;5067848;28;20430;-42
2023/08/04 07:53:50;;;;;;;1.85;1.70;;;18.80;99.90;;;;;;5077080;28;20036;-42
2023/08/04 07:56:17;;;;;;;4.50;1.92;;;18.80;99.90;;;;;;5076357;28;20012;-42
2023/08/04 07:58:43;;;;;;;3.63;2.13;;;18.80;99.90;;;;;;5074532;28;20044;-42
2023/08/04 08:01:09;;;;;;;4.03;2.38;;;18.90;99.90;;;;;;5077770;28;20027;-42
2023/08/04 08:03:35;;;;;;;4.13;2.20;;;18.90;99.90;;;;;;5069899;28;20033;-43
2023/08/04 08:06:02;;;;;;;3.17;2.10;;;18.90;99.90;;;;;;5074305;28;20546;-43
2023/08/04 08:08:28;;;;;;;3.97;2.00;;;19.00;99.90;;;;;;5072718;28;20047;-42
2023/08/04 08:10:54;;;;;;;2.78;2.20;;;19.00;99.90;;;;;;5075399;28;20032;-43
2023/08/04 08:13:21;;;;;;;3.53;2.60;;;19.00;99.90;;;;;;5078046;28;20110;-42
2023/08/04 08:15:49;;;;;;;6.32;2.60;;;19.00;99.90;;;;;;5074988;28;20387;-42
2023/08/04 08:18:15;;;;;;;2.97;2.25;;;19.10;99.90;;;;;;5073119;28;20134;-42
2023/08/04 08:20:45;;;;;;;3.40;2.45;;;19.10;99.90;;;;;;5074711;28;20031;-42
2023/08/04 08:23:10;;;;;;;2.95;2.10;;;19.20;99.90;;;;;;5077760;28;20012;-43
2023/08/04 08:25:36;;;;;;;2.55;2.20;;;19.20;99.90;;;;;;5075597;28;20839;-43
2023/08/04 08:28:03;;;;;;;3.42;2.17;;;19.20;99.90;;;;;;5074987;28;20371;-42
2023/08/04 08:30:28;;;;;;;3.60;2.05;;;19.30;99.90;;;;;;5076278;28;20107;-42
2023/08/04 08:32:54;;;;;;;3.75;2.75;;;19.30;99.90;;;;;;5078642;28;20031;-42
2023/08/04 08:35:20;;;;;;;3.13;2.05;;;19.30;99.90;;;;;;5072050;28;20027;-42
2023/08/04 08:37:45;;;;;;;2.47;1.58;;;19.20;99.90;;;;;;5078708;28;20048;-42
2023/08/04 08:40:11;;;;;;;2.22;1.73;;;19.20;99.90;;;;;;5076037;28;20020;-42
2023/08/04 08:42:37;;;;;;;3.35;1.85;;;19.10;99.90;;;;;;5070483;28;20559;-42
2023/08/04 08:45:03;;;;;;;2.20;1.55;;;19.10;99.90;;;;;;5070442;28;20055;-42
2023/08/04 08:47:38;;;;;;;1.85;1.50;;;19.20;99.90;;;;;;5063661;28;20427;-43
2023/08/04 08:50:06;;;;;;;3.75;2.00;;;19.40;99.90;;;;;;5074143;28;20464;-42
2023/08/04 08:52:36;;;;;;;4.88;2.10;;;19.50;99.90;;;;;;5076672;28;20051;-42
2023/08/04 08:55:04;;;;;;;3.75;1.63;;;19.60;99.90;;;;;;5069533;28;20029;-42
2023/08/04 08:57:30;;;;;;;2.55;1.67;;;19.70;99.90;;;;;;5078177;28;20117;-42
2023/08/04 08:59:59;;;;;;;5.28;2.25;;;19.80;99.90;;;;;;5074974;28;20028;-43
2023/08/04 09:02:25;;;;;;;2.67;1.60;;;19.90;99.90;;;;;;5068057;28;20339;-42
2023/08/04 09:04:54;;;;;;;2.72;1.60;;;20.00;99.90;;;;;;5070632;28;20547;-42
2023/08/04 09:07:24;;;;;;;2.50;1.80;;;20.00;99.90;;;;;;5074180;28;20032;-43
2023/08/04 09:09:50;;;;;;;2.30;1.40;;;20.00;99.90;;;;;;5066742;28;20036;-43
2023/08/04 09:12:16;;;;;;;1.98;1.60;;;20.10;99.90;;;;;;5069564;28;20058;-42
2023/08/04 09:14:53;;;;;;;1.23;1.10;;;20.10;99.90;;;;;;5067558;28;20082;-42
2023/08/04 09:17:34;;;;;;;2.95;1.50;;;20.10;99.90;;;;;;5066381;28;20096;-42
2023/08/04 09:20:02;;;;;;;1.40;1.10;;;20.10;99.90;;;;;;5070626;28;20498;-43
2023/08/04 09:22:31;;;;;;;1.27;1.00;;;20.10;99.90;;;;;;5074564;28;20089;-42
2023/08/04 09:25:03;;;;;;;1.05;0.93;;;19.90;99.90;;;;;;5073286;28;20024;-43
2023/08/04 09:27:42;;;;;;;1.20;0.98;;;19.90;99.90;;;;;;5071525;28;20043;-43
2023/08/04 09:30:09;;;;;;;0.95;0.85;;;19.90;99.90;;;;;;5066341;28;20532;-42
2023/08/04 09:32:48;;;;;;;1.95;1.10;;;19.90;99.90;;;;;;5075927;28;20475;-43
2023/08/04 09:35:14;;;;;;;0.95;0.70;;;20.00;99.90;;;;;;5073722;28;20020;-43
2023/08/04 09:37:40;;;;;;;1.02;0.73;;;19.90;99.90;;;;;;5071632;28;20028;-43
2023/08/04 09:40:12;;;;;;;1.17;0.98;;;19.90;99.90;;;;;;5077076;28;20031;-43
2023/08/04 09:42:39;;;;;;;0.80;0.80;;;20.00;99.90;;;;;;5076425;28;20028;-43
2023/08/04 09:45:05;;;;;;;0.80;0.60;;;20.10;99.90;;;;;;5069183;28;20035;-43
2023/08/04 09:47:31;;;;;;;0.90;0.80;;;20.10;99.90;;;;;;5077229;28;20117;-43
2023/08/04 09:49:58;;;;;;;2.78;0.90;;;20.10;99.90;;;;;;5078396;28;20075;-43
2023/08/04 09:52:30;;;;;;;1.48;0.95;;;20.00;99.90;;;;;;5077537;28;20600;-43
2023/08/04 09:54:56;;;;;;;0.77;0.77;;;20.10;99.90;;;;;;5081405;28;20756;-43
2023/08/04 09:57:25;;;;;;;1.00;0.90;;;20.20;99.90;;;;;;5073278;28;20043;-43
2023/08/04 10:00:04;;;;;;;2.35;1.00;;;20.20;99.90;;;;;;5074530;28;20044;-43
2023/08/04 10:02:30;;;;;;;2.15;1.00;;;20.20;99.90;;;;;;5074571;28;20073;-43
2023/08/04 10:04:56;;;;;;;1.50;0.90;;;20.30;99.90;;;;;;5068032;28;20028;-43
2023/08/04 10:07:22;;;;;;;1.73;0.97;;;20.40;99.90;;;;;;5068523;28;20024;-43
2023/08/04 10:09:49;;;;;;;3.20;1.20;;;20.50;99.90;;;;;;5079208;28;20032;-43
2023/08/04 10:12:16;;;;;;;2.80;1.05;;;20.50;99.90;;;;;;5076197;28;20475;-43
2023/08/04 10:14:43;;;;;;;2.47;1.23;;;20.40;99.90;;;;;;5077614;28;20028;-41
2023/08/04 10:17:09;;;;;;;2.55;1.00;;;20.30;99.90;;;;;;5078235;28;20024;-41
2023/08/04 10:19:35;;;;;;;1.70;1.42;;;20.20;99.90;;;;;;5075872;28;20039;-42
2023/08/04 10:22:23;;;;;;;1.58;1.00;;;20.20;99.90;;;;;;5080625;28;20750;-41
2023/08/04 10:24:49;;;;;;;1.48;1.02;;;20.30;99.90;;;;;;5075408;28;20055;-41
2023/08/04 10:27:22;;;;;;;1.65;1.20;;;20.30;99.90;;;;;;5080873;28;20748;-41
2023/08/04 10:30:24;;;;;;;2.90;1.00;;;20.40;99.90;;;;;;5073966;28;20054;-41
2023/08/04 10:32:52;;;;;;;1.08;0.93;;;20.50;99.90;;;;;;5014673;28;20568;-41
2023/08/04 10:35:20;;;;;;;1.48;1.00;;;20.80;99.90;;;;;;5058177;28;20036;-41
2023/08/04 10:37:53;;;;;;;2.15;1.10;;;21.00;99.90;;;;;;5073280;28;20100;-42
2023/08/04 10:40:30;;;;;;;1.55;0.93;;;21.00;99.90;;;;;;5072476;28;20412;-43
2023/08/04 10:43:25;;;;;;;2.13;1.05;;;20.90;99.90;;;;;;5084017;28;20051;-41
2023/08/04 10:46:03;;;;;;;1.45;0.90;;;20.80;99.90;;;;;;5074007;28;21996;-41
2023/08/04 10:48:34;;;;;;;0.88;0.80;;;20.90;99.90;;;;;;5080703;28;20130;-42
2023/08/04 10:51:05;;;;;;;1.33;1.10;;;20.90;99.90;;;;;;5084826;28;20062;-42
2023/08/04 10:53:31;;;;;;;1.90;1.10;;;21.00;99.90;;;;;;5082713;28;20027;-42
2023/08/04 10:55:58;;;;;;;2.10;1.10;;;21.00;99.90;;;;;;5073182;28;20025;-42
2023/08/04 10:58:30;;;;;;;1.20;1.00;;;21.20;99.90;;;;;;5082208;28;20062;-42
2023/08/04 11:00:57;;;;;;;1.42;1.10;;;21.30;99.90;;;;;;5077838;28;20024;-42
2023/08/04 11:03:25;;;;;;;2.72;1.00;;;21.30;99.90;;;;;;5084189;28;20054;-42
2023/08/04 11:05:52;;;;;;;2.08;1.15;;;21.30;99.90;;;;;;5075200;28;20031;-41
2023/08/04 11:08:19;;;;;;;2.50;1.02;;;21.20;99.90;;;;;;5083407;28;20077;-41
2023/08/04 11:10:55;;;;;;;1.92;0.85;;;21.20;99.90;;;;;;5075183;28;20031;-42
2023/08/04 11:13:22;;;;;;;1.35;0.95;;;21.10;99.90;;;;;;5082501;28;20560;-41
2023/08/04 11:15:49;;;;;;;2.05;1.10;;;21.20;99.90;;;;;;5078292;28;20028;-42
2023/08/04 11:18:20;;;;;;;1.42;0.90;;;21.10;99.90;;;;;;5072628;28;20032;-43
2023/08/04 11:20:46;;;;;;;2.33;1.10;;;21.10;99.90;;;;;;5077990;28;20506;-42
2023/08/04 11:23:12;;;;;;;2.58;0.90;;;21.10;99.90;;;;;;5079514;28;20028;-42
2023/08/04 11:25:39;;;;;;;2.28;1.17;;;21.20;99.90;;;;;;5077978;28;20032;-42
2023/08/04 11:28:06;;;;;;;1.85;1.00;;;21.30;99.90;;;;;;5079911;28;20032;-42
2023/08/04 11:30:33;;;;;;;2.47;1.00;;;21.50;99.90;;;;;;5074564;28;20036;-42
2023/08/04 11:32:58;;;;;;;1.95;0.90;;;21.60;99.90;;;;;;5077032;28;20513;-42
2023/08/04 11:35:28;;;;;;;1.73;0.85;;;21.80;99.90;;;;;;5077960;28;20020;-42
2023/08/04 11:37:54;;;;;;;2.03;1.00;;;21.80;99.90;;;;;;5078380;28;20024;-42
2023/08/04 11:40:24;;;;;;;1.92;1.02;;;21.80;99.90;;;;;;5077685;28;20047;-42
2023/08/04 11:42:57;;;;;;;1.95;0.80;;;21.70;99.90;;;;;;5076746;28;20036;-42
2023/08/04 11:45:23;;;;;;;1.40;0.95;;;21.70;99.90;;;;;;5071044;28;20073;-42
2023/08/04 11:47:49;;;;;;;2.13;1.17;;;21.80;99.90;;;;;;5078322;28;20040;-42
2023/08/04 11:50:16;;;;;;;2.42;1.10;;;21.70;99.90;;;;;;5072880;28;20028;-43
2023/08/04 11:52:48;;;;;;;2.40;1.27;;;21.70;99.90;;;;;;5078677;28;20115;-42
2023/08/04 11:55:13;;;;;;;2.70;1.40;;;21.50;99.90;;;;;;5075930;28;20588;-43
2023/08/04 11:57:52;;;;;;;2.33;1.00;;;21.30;99.90;;;;;;5079690;28;20024;-42
2023/08/04 12:00:35;;;;;;;5.47;1.40;;;21.00;99.90;;;;;;5077397;28;20051;-42
2023/08/04 12:03:03;;;;;;;1.20;1.10;;;20.90;99.90;;;;;;5075338;28;20040;-44
2023/08/04 12:05:33;;;;;;;1.75;1.08;;;20.80;99.90;;;;;;5079905;28;20038;-44
2023/08/04 12:07:59;;;;;;;2.40;1.08;;;20.70;99.90;;;;;;5076233;28;20032;-42
2023/08/04 12:10:38;;;;;;;2.17;1.10;;;20.70;99.90;;;;;;5074389;28;20032;-42
2023/08/04 12:13:04;;;;;;;1.67;1.13;;;20.70;99.90;;;;;;5074631;28;20028;-42
2023/08/04 12:15:29;;;;;;;1.65;1.05;;;20.70;99.90;;;;;;5076913;28;20575;-43
2023/08/04 12:17:55;;;;;;;1.70;1.00;;;20.70;99.90;;;;;;5075060;28;20024;-42
2023/08/04 12:20:20;;;;;;;2.20;1.10;;;20.70;99.90;;;;;;5075593;28;20119;-43
2023/08/04 12:22:46;;;;;;;2.45;0.95;;;20.80;99.90;;;;;;5074782;28;20466;-42
2023/08/04 12:25:12;;;;;;;2.40;1.20;;;20.90;99.90;;;;;;5078717;28;20074;-43
2023/08/04 12:27:40;;;;;;;1.45;1.10;;;20.90;99.90;;;;;;5074283;28;20020;-42
2023/08/04 12:30:06;;;;;;;2.80;1.40;;;20.90;99.90;;;;;;5077064;28;20506;-43
2023/08/04 12:32:31;;;;;;;2.20;1.08;;;21.00;99.90;;;;;;5073185;28;20348;-42
2023/08/04 12:34:57;;;;;;;1.65;1.10;;;20.90;99.90;;;;;;5072979;28;20478;-42
2023/08/04 12:37:25;;;;;;;2.15;1.15;;;20.80;99.90;;;;;;5074961;28;20134;-43
2023/08/04 12:39:51;;;;;;;1.85;1.33;;;20.80;99.90;;;;;;5076547;28;20033;-42
2023/08/04 12:42:16;;;;;;;2.38;1.00;;;20.80;99.90;;;;;;5073085;28;20025;-43
2023/08/04 12:44:42;;;;;;;1.98;0.98;;;20.90;99.90;;;;;;5072475;28;20024;-42
2023/08/04 12:47:10;;;;;;;2.92;1.10;;;21.10;99.90;;;;;;5074365;28;20052;-42
2023/08/04 12:49:35;;;;;;;3.10;1.10;;;21.30;99.90;;;;;;5076226;28;20032;-42